Time;durP1;ratioP1;P1;durP2;ratioP2;P2;SDS_P1;SDS_P2;PMS_P1;PMS_P2;Temp;Humidity;BMP_temperature;BMP_pressure;BME280_temperature;BME280_humidity;BME280_pressure;Samples;Min_cycle;Max_cycle;Signal;HPM_P1;HPM_P2
2022/07/03 00:01:12;;;;;;;4.88;3.72;;;17.80;99.90;;;;;;5061209;28;20055;-44
2022/07/03 00:03:38;;;;;;;6.28;3.92;;;17.80;99.90;;;;;;5065068;28;20081;-44
2022/07/03 00:06:04;;;;;;;5.38;3.70;;;17.70;99.90;;;;;;5059460;28;20048;-44
2022/07/03 00:08:30;;;;;;;6.75;4.00;;;17.60;99.90;;;;;;5080913;28;20457;-43
2022/07/03 00:10:56;;;;;;;6.88;4.20;;;17.50;99.90;;;;;;5082283;28;20120;-44
2022/07/03 00:13:22;;;;;;;6.00;3.95;;;17.50;99.90;;;;;;5055789;28;20040;-44
2022/07/03 00:15:48;;;;;;;5.05;3.83;;;17.40;99.90;;;;;;5053567;28;20056;-44
2022/07/03 00:18:14;;;;;;;4.60;3.88;;;17.40;99.90;;;;;;5074024;28;20873;-43
2022/07/03 00:20:45;;;;;;;8.63;4.03;;;17.30;99.90;;;;;;5049437;28;20056;-44
2022/07/03 00:23:16;;;;;;;5.10;3.83;;;17.20;99.90;;;;;;5081792;28;20131;-44
2022/07/03 00:25:42;;;;;;;5.35;4.13;;;17.20;99.90;;;;;;5072079;28;20500;-44
2022/07/03 00:28:08;;;;;;;4.40;4.00;;;17.10;99.90;;;;;;5062102;28;20040;-43
2022/07/03 00:30:34;;;;;;;6.95;4.47;;;17.10;99.90;;;;;;5081453;28;20052;-50
2022/07/03 00:33:05;;;;;;;4.63;4.10;;;17.10;99.90;;;;;;5046661;28;20048;-44
2022/07/03 00:35:33;;;;;;;4.38;3.92;;;17.10;99.90;;;;;;5063174;28;20056;-42
2022/07/03 00:38:01;;;;;;;6.60;4.63;;;17.00;99.90;;;;;;5078158;28;20052;-45
2022/07/03 00:40:27;;;;;;;7.57;4.78;;;17.00;99.90;;;;;;5081103;28;20150;-45
2022/07/03 00:42:59;;;;;;;6.78;4.93;;;16.90;99.90;;;;;;5063939;28;20512;-45
2022/07/03 00:45:26;;;;;;;6.03;4.70;;;16.90;99.90;;;;;;5063086;28;20060;-45
2022/07/03 00:47:54;;;;;;;8.85;5.03;;;16.90;99.90;;;;;;5080320;28;20047;-44
2022/07/03 00:50:25;;;;;;;4.93;4.43;;;16.80;99.90;;;;;;5069119;28;20119;-44
2022/07/03 00:52:54;;;;;;;4.90;4.40;;;16.80;99.90;;;;;;5062457;28;20095;-44
2022/07/03 00:55:22;;;;;;;6.88;5.07;;;16.80;99.90;;;;;;5075287;28;20109;-43
2022/07/03 00:57:48;;;;;;;7.07;5.00;;;16.80;99.90;;;;;;5041262;28;20428;-44
2022/07/03 01:00:16;;;;;;;7.72;5.88;;;16.70;99.90;;;;;;5065131;28;20135;-42
2022/07/03 01:02:48;;;;;;;5.63;5.07;;;16.70;99.90;;;;;;5041853;28;20142;-43
2022/07/03 01:05:27;;;;;;;7.53;6.03;;;16.70;99.90;;;;;;5042444;28;20044;-43
2022/07/03 01:08:01;;;;;;;5.93;5.40;;;16.70;99.90;;;;;;5060145;28;20063;-43
2022/07/03 01:10:42;;;;;;;8.48;5.53;;;16.60;99.90;;;;;;5059411;28;20391;-43
2022/07/03 01:13:20;;;;;;;6.22;5.63;;;16.60;99.90;;;;;;5059375;28;20056;-44
2022/07/03 01:16:06;;;;;;;8.43;7.30;;;16.60;99.90;;;;;;5042371;28;20110;-43
2022/07/03 01:18:53;;;;;;;6.85;6.32;;;16.50;99.90;;;;;;5050542;28;20072;-43
2022/07/03 01:21:34;;;;;;;6.85;6.18;;;16.50;99.90;;;;;;5049407;28;20084;-43
2022/07/03 01:24:18;;;;;;;7.28;6.35;;;16.40;99.90;;;;;;5036552;28;20055;-42
2022/07/03 01:26:47;;;;;;;7.93;6.75;;;16.40;99.90;;;;;;5042535;28;20101;-43
2022/07/03 01:29:35;;;;;;;6.90;6.32;;;16.40;99.90;;;;;;5032730;28;20095;-44
2022/07/03 01:32:03;;;;;;;6.72;6.05;;;16.40;99.90;;;;;;5037989;28;20056;-44
2022/07/03 01:34:36;;;;;;;9.57;6.18;;;16.30;99.90;;;;;;5033397;28;20503;-44
2022/07/03 01:37:03;;;;;;;7.00;6.38;;;16.20;99.90;;;;;;5037509;28;20515;-44
2022/07/03 01:39:31;;;;;;;6.80;6.07;;;16.10;99.90;;;;;;5055728;28;20053;-44
2022/07/03 01:42:00;;;;;;;8.60;7.32;;;16.00;99.90;;;;;;5027493;28;20059;-41
2022/07/03 01:44:28;;;;;;;6.00;5.43;;;16.00;99.90;;;;;;5046982;28;20486;-43
2022/07/03 01:46:58;;;;;;;7.25;6.57;;;15.90;99.90;;;;;;5047008;28;20562;-44
2022/07/03 01:49:28;;;;;;;7.55;6.82;;;15.90;99.90;;;;;;5030625;28;20048;-47
2022/07/03 01:51:55;;;;;;;8.32;7.15;;;15.80;99.90;;;;;;5045584;28;20059;-44
2022/07/03 01:54:25;;;;;;;7.63;6.90;;;15.80;99.90;;;;;;5045605;28;20059;-44
2022/07/03 01:56:51;;;;;;;6.85;6.25;;;15.80;99.90;;;;;;5063679;28;20584;-43
2022/07/03 01:59:17;;;;;;;8.02;7.32;;;15.80;99.90;;;;;;5044831;28;20064;-43
2022/07/03 02:01:52;;;;;;;7.32;6.63;;;15.80;99.90;;;;;;5038265;28;20057;-45
2022/07/03 02:04:31;;;;;;;7.70;6.78;;;15.70;99.90;;;;;;5061187;28;20060;-44
2022/07/03 02:07:24;;;;;;;9.57;8.43;;;15.70;99.90;;;;;;5063051;28;20538;-43
2022/07/03 02:10:07;;;;;;;8.98;6.85;;;15.70;99.90;;;;;;5042351;28;20407;-43
2022/07/03 02:12:47;;;;;;;7.18;6.57;;;15.60;99.90;;;;;;5028587;28;20128;-44
2022/07/03 02:15:17;;;;;;;8.90;6.50;;;15.60;99.90;;;;;;5063091;28;20048;-43
2022/07/03 02:17:46;;;;;;;8.23;6.30;;;15.50;99.90;;;;;;5063296;28;20048;-42
2022/07/03 02:20:15;;;;;;;7.53;6.70;;;15.40;99.90;;;;;;5062178;28;20601;-44
2022/07/03 02:22:44;;;;;;;7.53;7.00;;;15.30;99.90;;;;;;5070365;28;20581;-44
2022/07/03 02:25:22;;;;;;;8.48;7.10;;;15.30;99.90;;;;;;5079530;28;20055;-42
2022/07/03 02:28:03;;;;;;;8.00;7.15;;;15.30;99.90;;;;;;5069727;28;20059;-43
2022/07/03 02:30:29;;;;;;;8.90;7.18;;;15.20;99.90;;;;;;5083121;28;20461;-42
2022/07/03 02:32:59;;;;;;;7.80;7.18;;;15.20;99.90;;;;;;5082985;28;20048;-43
2022/07/03 02:35:30;;;;;;;8.68;7.72;;;15.20;99.90;;;;;;5064468;28;20138;-43
2022/07/03 02:38:15;;;;;;;8.80;7.90;;;15.20;99.90;;;;;;5083438;28;20569;-44
2022/07/03 02:41:06;;;;;;;9.10;8.23;;;15.20;99.90;;;;;;5076918;28;20402;-43
2022/07/03 02:43:47;;;;;;;9.40;8.38;;;15.20;99.90;;;;;;5082711;28;20044;-42
2022/07/03 02:46:49;;;;;;;9.77;8.88;;;15.30;99.90;;;;;;5083075;28;20055;-44
2022/07/03 02:49:23;;;;;;;9.77;8.90;;;15.30;99.90;;;;;;5082645;28;20063;-45
2022/07/03 02:52:14;;;;;;;8.95;8.15;;;15.30;99.90;;;;;;5072779;28;20532;-43
2022/07/03 02:54:48;;;;;;;9.20;8.50;;;15.30;99.90;;;;;;5065334;28;20496;-43
2022/07/03 02:57:20;;;;;;;10.00;9.05;;;15.40;99.90;;;;;;5065090;28;20090;-43
2022/07/03 02:59:56;;;;;;;10.18;9.27;;;15.40;99.90;;;;;;5065792;28;20054;-43
2022/07/03 03:02:22;;;;;;;9.90;8.88;;;15.40;99.90;;;;;;5082531;28;20593;-43
2022/07/03 03:05:09;;;;;;;10.50;9.20;;;15.30;99.90;;;;;;5053678;28;20063;-43
2022/07/03 03:08:05;;;;;;;9.35;8.55;;;15.40;99.90;;;;;;5063860;28;20051;-47
2022/07/03 03:10:36;;;;;;;8.70;7.97;;;15.40;99.90;;;;;;5065903;28;20517;-43
2022/07/03 03:13:12;;;;;;;9.00;8.25;;;15.40;99.90;;;;;;5070005;28;20063;-43
2022/07/03 03:15:42;;;;;;;9.90;8.43;;;15.40;99.90;;;;;;5056289;28;20564;-44
2022/07/03 03:18:17;;;;;;;10.02;9.13;;;15.40;99.90;;;;;;5080075;28;20064;-52
2022/07/03 03:20:48;;;;;;;9.70;8.80;;;15.40;99.90;;;;;;5070954;28;20134;-43
2022/07/03 03:23:48;;;;;;;10.95;10.05;;;15.40;99.90;;;;;;5080606;28;20232;-44
2022/07/03 03:26:17;;;;;;;10.68;9.73;;;15.40;99.90;;;;;;4999593;28;20073;-43
2022/07/03 03:28:43;;;;;;;10.68;9.73;;;15.30;99.90;;;;;;4998824;28;20548;-43
2022/07/03 03:31:09;;;;;;;11.15;10.25;;;15.30;99.90;;;;;;4999346;28;20578;-44
2022/07/03 03:33:46;;;;;;;9.95;8.95;;;15.20;99.90;;;;;;5001348;28;20057;-44
2022/07/03 03:36:14;;;;;;;9.38;8.55;;;15.20;99.90;;;;;;4982406;28;20065;-44
2022/07/03 03:38:40;;;;;;;10.32;9.15;;;15.20;99.90;;;;;;4998430;28;20057;-43
2022/07/03 03:41:07;;;;;;;8.98;8.18;;;15.30;99.90;;;;;;5000566;28;20085;-43
2022/07/03 03:43:34;;;;;;;10.02;9.13;;;15.30;99.90;;;;;;4999157;28;20562;-43
2022/07/03 03:46:00;;;;;;;10.50;9.50;;;15.30;99.90;;;;;;4990728;28;20119;-45
2022/07/03 03:48:34;;;;;;;9.50;8.60;;;15.40;99.90;;;;;;4999953;28;20076;-42
2022/07/03 03:51:02;;;;;;;9.27;8.48;;;15.50;99.90;;;;;;4999850;28;20053;-43
2022/07/03 03:53:29;;;;;;;10.10;9.15;;;15.50;99.90;;;;;;5001668;28;20197;-42
2022/07/03 03:56:02;;;;;;;10.68;9.10;;;15.50;99.90;;;;;;4983372;28;20777;-43
2022/07/03 03:58:29;;;;;;;10.75;8.77;;;15.50;99.90;;;;;;4981394;28;20153;-42
2022/07/03 04:00:56;;;;;;;9.15;8.38;;;15.60;99.90;;;;;;5006701;28;20073;-43
2022/07/03 04:03:22;;;;;;;9.23;8.43;;;15.60;99.90;;;;;;5090871;28;20067;-43
2022/07/03 04:05:48;;;;;;;9.07;8.20;;;15.70;99.90;;;;;;5080591;28;20040;-42
2022/07/03 04:08:15;;;;;;;9.73;8.93;;;15.80;99.90;;;;;;5065983;28;20055;-43
2022/07/03 04:10:41;;;;;;;9.52;8.48;;;15.80;99.90;;;;;;5068516;28;20542;-43
2022/07/03 04:13:07;;;;;;;10.02;8.13;;;15.90;99.90;;;;;;5051956;28;20054;-42
2022/07/03 04:15:32;;;;;;;10.35;7.93;;;16.30;99.90;;;;;;5071068;28;20461;-43
2022/07/03 04:17:58;;;;;;;8.10;7.30;;;17.10;99.90;;;;;;5074296;28;20074;-44
2022/07/03 04:20:24;;;;;;;8.25;7.45;;;17.60;99.90;;;;;;5078918;28;20056;-47
2022/07/03 04:22:50;;;;;;;8.85;7.72;;;17.80;99.90;;;;;;5082643;28;20690;-43
2022/07/03 04:25:17;;;;;;;7.65;7.03;;;17.70;99.90;;;;;;5050702;28;20098;-45
2022/07/03 04:27:43;;;;;;;7.30;6.68;;;17.60;99.90;;;;;;5070254;28;20079;-44
2022/07/03 04:30:10;;;;;;;7.78;7.18;;;17.40;99.90;;;;;;5080491;28;20482;-45
2022/07/03 04:32:37;;;;;;;7.78;7.07;;;17.40;99.90;;;;;;5061501;28;20056;-43
2022/07/03 04:35:03;;;;;;;6.35;5.80;;;17.60;99.90;;;;;;5075467;28;20053;-43
2022/07/03 04:37:29;;;;;;;6.90;6.00;;;18.60;99.90;;;;;;5074613;28;20041;-43
2022/07/03 04:39:55;;;;;;;6.05;5.18;;;19.60;99.90;;;;;;5073719;28;20040;-45
2022/07/03 04:42:21;;;;;;;5.38;4.85;;;19.90;99.90;;;;;;5069082;28;20494;-44
2022/07/03 04:44:47;;;;;;;5.47;4.97;;;19.70;99.90;;;;;;5080699;28;20044;-43
2022/07/03 04:47:14;;;;;;;7.32;5.60;;;19.30;99.90;;;;;;5058937;28;20060;-44
2022/07/03 04:49:43;;;;;;;7.15;5.72;;;19.10;99.90;;;;;;5060138;28;20459;-43
2022/07/03 04:52:09;;;;;;;6.90;5.05;;;18.90;99.90;;;;;;5042803;28;20413;-44
2022/07/03 04:54:36;;;;;;;8.13;5.85;;;19.20;99.90;;;;;;5042614;28;20483;-43
2022/07/03 04:57:05;;;;;;;6.60;5.18;;;20.00;99.90;;;;;;5042168;28;20380;-44
2022/07/03 04:59:31;;;;;;;6.15;4.75;;;20.70;99.90;;;;;;5042512;28;20063;-44
2022/07/03 05:01:58;;;;;;;7.05;5.70;;;20.70;99.90;;;;;;5080670;28;20491;-43
2022/07/03 05:04:24;;;;;;;8.77;5.35;;;20.50;99.90;;;;;;5063639;28;20132;-43
2022/07/03 05:06:50;;;;;;;5.80;5.15;;;20.10;99.90;;;;;;5080980;28;20487;-44
2022/07/03 05:09:15;;;;;;;7.10;6.40;;;19.80;99.90;;;;;;5055274;28;20147;-44
2022/07/03 05:11:41;;;;;;;6.70;6.07;;;19.40;99.90;;;;;;5084459;28;20036;-43
2022/07/03 05:14:07;;;;;;;6.80;6.28;;;19.20;99.90;;;;;;5053638;28;20406;-44
2022/07/03 05:16:34;;;;;;;7.10;6.03;;;19.00;99.90;;;;;;5066008;28;20542;-43
2022/07/03 05:19:00;;;;;;;8.65;6.70;;;18.90;99.90;;;;;;5064735;28;20130;-42
2022/07/03 05:21:26;;;;;;;6.57;5.97;;;18.90;99.90;;;;;;5062640;28;20057;-43
2022/07/03 05:23:53;;;;;;;7.43;5.95;;;19.00;99.90;;;;;;5053463;28;20048;-44
2022/07/03 05:26:18;;;;;;;8.82;5.90;;;18.90;99.90;;;;;;5037562;28;20053;-44
2022/07/03 05:28:44;;;;;;;6.43;5.82;;;18.90;99.90;;;;;;5031756;28;20170;-43
2022/07/03 05:31:10;;;;;;;6.03;5.45;;;18.80;99.90;;;;;;5064461;28;20048;-44
2022/07/03 05:33:38;;;;;;;8.30;5.80;;;18.70;99.90;;;;;;5062530;28;20106;-44
2022/07/03 05:36:04;;;;;;;16.42;7.80;;;18.60;99.90;;;;;;5044714;28;20053;-42
2022/07/03 05:41:19;;;;;;;5.28;4.72;;;18.70;99.90;;;;;;5028980;28;20053;-49
2022/07/03 05:43:45;;;;;;;5.47;4.63;;;19.60;99.90;;;;;;5057322;28;20075;-45
2022/07/03 05:46:11;;;;;;;5.68;5.18;;;20.30;99.90;;;;;;5034765;28;20084;-44
2022/07/03 05:48:37;;;;;;;5.65;4.90;;;20.70;99.90;;;;;;5042803;28;20056;-44
2022/07/03 05:51:02;;;;;;;5.72;5.13;;;21.10;99.90;;;;;;5058284;28;20474;-44
2022/07/03 05:53:29;;;;;;;6.85;4.93;;;21.20;99.90;;;;;;5063436;28;20140;-44
2022/07/03 05:55:55;;;;;;;5.85;5.30;;;21.30;99.90;;;;;;5033799;28;20075;-43
2022/07/03 05:58:20;;;;;;;5.22;4.70;;;21.10;99.90;;;;;;5042660;28;20083;-44
2022/07/03 06:00:46;;;;;;;6.43;5.10;;;20.70;99.90;;;;;;5051306;28;20044;-44
2022/07/03 06:03:12;;;;;;;7.28;4.72;;;20.40;99.90;;;;;;5044622;28;20056;-44
2022/07/03 06:05:38;;;;;;;5.35;4.85;;;20.10;99.90;;;;;;5026005;28;20092;-44
2022/07/03 06:08:05;;;;;;;5.88;5.00;;;19.90;99.90;;;;;;5042241;28;20474;-42
2022/07/03 06:10:31;;;;;;;7.10;4.85;;;20.80;99.90;;;;;;5043134;28;20496;-44
2022/07/03 06:12:57;;;;;;;4.30;3.50;;;22.60;99.90;;;;;;5051018;28;20048;-43
2022/07/03 06:15:23;;;;;;;6.15;4.07;;;24.40;99.90;;;;;;5062789;28;20570;-47
2022/07/03 06:17:49;;;;;;;3.50;2.20;;;25.80;99.90;;;;;;5044074;28;20492;-44
2022/07/03 06:20:15;;;;;;;5.30;2.05;;;27.10;99.90;;;;;;5058010;28;20473;-44
2022/07/03 06:22:41;;;;;;;3.85;2.10;;;27.50;99.60;;;;;;5045526;28;20068;-46
2022/07/03 06:25:07;;;;;;;4.35;2.00;;;26.90;99.40;;;;;;5063923;28;20048;-45
2022/07/03 06:27:33;;;;;;;5.10;1.83;;;26.30;99.20;;;;;;5045940;28;20084;-44
2022/07/03 06:29:59;;;;;;;3.47;1.50;;;26.20;99.70;;;;;;5063799;28;20635;-44
2022/07/03 06:32:25;;;;;;;3.30;1.50;;;27.00;98.40;;;;;;5061345;28;20052;-45
2022/07/03 06:34:56;;;;;;;4.30;1.67;;;26.60;98.20;;;;;;5063618;28;20048;-44
2022/07/03 06:37:22;;;;;;;6.00;1.85;;;25.90;98.70;;;;;;5063367;28;20036;-44
2022/07/03 06:39:47;;;;;;;5.90;1.38;;;24.90;99.40;;;;;;5027569;28;20059;-45
2022/07/03 06:42:13;;;;;;;3.70;1.63;;;24.50;99.90;;;;;;5062622;28;20154;-47
2022/07/03 06:44:40;;;;;;;4.53;1.65;;;24.00;99.90;;;;;;5063089;28;20048;-44
2022/07/03 06:47:06;;;;;;;3.67;1.38;;;23.90;99.90;;;;;;5047300;28;20053;-44
2022/07/03 06:49:33;;;;;;;3.20;1.48;;;23.90;99.90;;;;;;5074686;28;20055;-44
2022/07/03 06:51:59;;;;;;;4.60;2.28;;;24.50;99.90;;;;;;5047171;28;20133;-45
2022/07/03 06:54:25;;;;;;;8.85;1.70;;;25.60;99.80;;;;;;5061286;28;20041;-46
2022/07/03 06:56:51;;;;;;;4.03;1.30;;;26.70;98.70;;;;;;5046710;28;20051;-47
2022/07/03 06:59:45;;;;;;;4.20;1.30;;;26.90;97.50;;;;;;5064773;28;20047;-46
2022/07/03 07:02:11;;;;;;;2.92;1.38;;;26.70;97.10;;;;;;5053147;28;20101;-52
2022/07/03 07:04:37;;;;;;;3.83;1.38;;;27.40;97.50;;;;;;5061893;28;20445;-46
2022/07/03 07:07:03;;;;;;;4.68;1.77;;;27.70;96.10;;;;;;5062537;28;20048;-46
2022/07/03 07:09:29;;;;;;;4.30;1.50;;;27.40;96.30;;;;;;5062370;28;20063;-45
2022/07/03 07:11:54;;;;;;;4.40;1.48;;;27.50;96.70;;;;;;5061931;28;20463;-46
2022/07/03 07:14:20;;;;;;;4.60;1.55;;;28.40;95.10;;;;;;5053007;28;20127;-45
2022/07/03 07:16:46;;;;;;;6.28;1.48;;;29.60;94.70;;;;;;5061371;28;20171;-44
2022/07/03 07:19:11;;;;;;;3.17;1.40;;;30.30;93.30;;;;;;5044752;28;20650;-44
2022/07/03 07:21:37;;;;;;;6.72;1.58;;;30.70;92.80;;;;;;5060224;28;20380;-45
2022/07/03 07:24:03;;;;;;;4.40;1.20;;;31.30;92.70;;;;;;5061896;28;20491;-45
2022/07/03 07:26:29;;;;;;;3.42;1.30;;;31.20;91.30;;;;;;5061944;28;20048;-46
2022/07/03 07:28:55;;;;;;;4.65;1.50;;;30.80;91.20;;;;;;5059027;28;20117;-46
2022/07/03 07:31:20;;;;;;;4.53;1.67;;;30.10;91.50;;;;;;5060771;28;20044;-43
2022/07/03 07:33:46;;;;;;;5.50;1.50;;;29.40;92.20;;;;;;5060259;28;20045;-45
2022/07/03 07:36:12;;;;;;;3.10;1.30;;;29.00;92.50;;;;;;5060871;28;20044;-45
2022/07/03 07:38:38;;;;;;;2.05;1.05;;;28.40;93.60;;;;;;5060936;28;20056;-45
2022/07/03 07:41:04;;;;;;;3.78;1.65;;;28.30;93.70;;;;;;5061326;28;20131;-45
2022/07/03 07:43:29;;;;;;;3.47;1.52;;;28.10;93.20;;;;;;5060820;28;20044;-49
2022/07/03 07:45:56;;;;;;;3.78;1.55;;;27.90;93.20;;;;;;5060977;28;20094;-46
2022/07/03 07:48:22;;;;;;;4.20;1.33;;;27.90;93.60;;;;;;5057744;28;20584;-45
2022/07/03 07:50:49;;;;;;;3.55;1.15;;;27.80;93.60;;;;;;5059795;28;20152;-47
2022/07/03 07:53:15;;;;;;;2.42;1.27;;;27.80;93.50;;;;;;5060834;28;20041;-44
2022/07/03 07:55:41;;;;;;;5.05;1.70;;;27.80;93.30;;;;;;5059928;28;20094;-44
2022/07/03 07:58:08;;;;;;;2.35;1.02;;;27.90;92.80;;;;;;5058819;28;20088;-46
2022/07/03 08:00:34;;;;;;;6.65;1.65;;;27.80;93.10;;;;;;5060313;28;20056;-44
2022/07/03 08:05:44;;;;;;;4.60;1.38;;;27.30;92.70;;;;;;5062102;28;20053;-45
2022/07/03 08:08:12;;;;;;;2.60;1.27;;;27.20;92.50;;;;;;5061006;28;20044;-45
2022/07/03 08:10:41;;;;;;;2.55;1.20;;;27.10;93.10;;;;;;5061826;28;20041;-47
2022/07/03 08:13:11;;;;;;;3.65;1.70;;;27.10;92.60;;;;;;5060335;28;20044;-45
2022/07/03 08:15:38;;;;;;;4.10;1.40;;;27.10;93.00;;;;;;5061701;28;20055;-46
2022/07/03 08:18:05;;;;;;;2.17;1.23;;;27.20;93.30;;;;;;5059887;28;20450;-46
2022/07/03 08:20:32;;;;;;;3.90;1.70;;;27.20;93.50;;;;;;5066187;28;20067;-46
2022/07/03 08:22:58;;;;;;;4.05;1.77;;;27.40;93.70;;;;;;5062435;28;20060;-47
2022/07/03 08:25:25;;;;;;;3.88;1.30;;;27.30;92.80;;;;;;5060707;28;20052;-47
2022/07/03 08:27:51;;;;;;;2.78;1.40;;;27.20;92.70;;;;;;5062844;28;20089;-45
2022/07/03 08:30:17;;;;;;;2.70;1.17;;;26.90;93.20;;;;;;5064083;28;20040;-46
2022/07/03 08:32:48;;;;;;;2.80;1.10;;;26.60;93.90;;;;;;5061450;28;20051;-44
2022/07/03 08:35:18;;;;;;;2.25;1.20;;;26.50;93.20;;;;;;5064828;28;20044;-44
2022/07/03 08:37:46;;;;;;;3.65;1.20;;;26.60;93.60;;;;;;5080143;28;20044;-46
2022/07/03 08:40:16;;;;;;;2.50;1.35;;;26.30;93.30;;;;;;5056096;28;20044;-47
2022/07/03 08:42:48;;;;;;;4.65;1.15;;;26.20;93.00;;;;;;5072086;28;20044;-45
2022/07/03 08:45:16;;;;;;;3.03;1.35;;;26.00;92.80;;;;;;5064939;28;20064;-44
2022/07/03 08:47:43;;;;;;;3.58;1.50;;;26.10;92.80;;;;;;5084141;28;20048;-45
2022/07/03 08:50:12;;;;;;;4.47;1.70;;;26.10;93.10;;;;;;5084919;28;20050;-46
2022/07/03 08:52:42;;;;;;;5.15;1.50;;;26.30;93.80;;;;;;5035562;28;20139;-46
2022/07/03 08:55:09;;;;;;;5.18;1.80;;;26.30;93.50;;;;;;5064480;28;20413;-43
2022/07/03 08:57:40;;;;;;;3.03;1.55;;;26.40;93.70;;;;;;5045555;28;20048;-44
2022/07/03 09:00:11;;;;;;;5.35;1.40;;;26.40;93.60;;;;;;5063860;28;20059;-45
2022/07/03 09:02:41;;;;;;;6.22;1.50;;;26.20;93.30;;;;;;5064543;28;20049;-44
2022/07/03 09:05:12;;;;;;;4.60;1.35;;;26.20;93.30;;;;;;5064466;28;20441;-44
2022/07/03 09:07:40;;;;;;;3.25;1.10;;;26.20;93.70;;;;;;5045660;28;20590;-47
2022/07/03 09:10:09;;;;;;;3.33;1.30;;;26.30;93.70;;;;;;5046710;28;20121;-47
2022/07/03 09:12:35;;;;;;;4.93;1.70;;;26.40;94.40;;;;;;5046419;28;20063;-46
2022/07/03 09:15:04;;;;;;;4.60;1.77;;;26.60;94.00;;;;;;5064362;28;20041;-45
2022/07/03 09:17:30;;;;;;;3.33;1.60;;;26.50;94.00;;;;;;5064257;28;20569;-48
2022/07/03 09:20:05;;;;;;;5.90;1.67;;;26.60;94.70;;;;;;5048301;28;20525;-45
2022/07/03 09:22:32;;;;;;;6.13;1.70;;;26.70;94.80;;;;;;5063064;28;20106;-45
2022/07/03 09:25:14;;;;;;;6.90;2.40;;;26.60;95.00;;;;;;5046028;28;20607;-46
2022/07/03 09:27:50;;;;;;;4.93;2.00;;;26.60;94.60;;;;;;5066304;28;20095;-44
2022/07/03 09:30:16;;;;;;;4.97;1.95;;;26.50;95.10;;;;;;5063985;28;20102;-44
2022/07/03 09:32:44;;;;;;;4.78;1.70;;;26.60;94.90;;;;;;5045198;28;20041;-45
2022/07/03 09:35:15;;;;;;;5.82;2.08;;;26.60;96.00;;;;;;5063836;28;20063;-43
2022/07/03 09:37:52;;;;;;;5.37;1.87;;;26.60;94.60;;;;;;5063377;28;20048;-46
2022/07/03 09:40:18;;;;;;;5.35;1.83;;;26.70;95.10;;;;;;5059919;28;20134;-45
2022/07/03 09:43:14;;;;;;;4.95;2.13;;;26.40;95.20;;;;;;5036809;28;20053;-44
2022/07/03 09:45:52;;;;;;;7.45;2.20;;;26.50;95.40;;;;;;4984106;28;20180;-48
2022/07/03 09:48:30;;;;;;;4.30;1.98;;;26.50;96.00;;;;;;4989410;28;20054;-46
2022/07/03 09:51:28;;;;;;;3.92;1.80;;;26.50;95.40;;;;;;4999383;28;20095;-48
2022/07/03 09:54:03;;;;;;;9.07;3.08;;;26.60;95.40;;;;;;5001357;28;20702;-49
2022/07/03 09:56:38;;;;;;;5.25;1.85;;;26.60;95.20;;;;;;4999949;28;20115;-45
2022/07/03 09:59:07;;;;;;;7.32;2.00;;;26.70;96.10;;;;;;5000835;28;20058;-44
2022/07/03 10:01:34;;;;;;;4.10;1.98;;;26.90;95.20;;;;;;4973142;28;20336;-47
2022/07/03 10:04:19;;;;;;;3.90;1.70;;;26.90;95.40;;;;;;5021518;28;20107;-45
2022/07/03 10:07:23;;;;;;;3.97;1.92;;;27.00;96.20;;;;;;5005551;28;20508;-45
2022/07/03 10:09:49;;;;;;;5.32;2.33;;;26.90;95.90;;;;;;4981060;28;20066;-46
2022/07/03 10:12:15;;;;;;;6.32;1.95;;;27.00;94.70;;;;;;4964695;28;20073;-46
2022/07/03 10:14:41;;;;;;;4.13;1.63;;;27.00;93.80;;;;;;4973816;28;20086;-45
2022/07/03 10:17:06;;;;;;;8.90;2.13;;;26.70;93.20;;;;;;4979827;28;20066;-48
2022/07/03 10:19:39;;;;;;;5.88;2.20;;;26.50;94.30;;;;;;4982049;28;20607;-48
2022/07/03 10:22:08;;;;;;;;;;;26.60;95.30;;;;;;5007472;28;20595;-47
2022/07/03 10:24:35;;;;;;;4.90;1.60;;;26.70;95.20;;;;;;5014101;28;20348;-45
2022/07/03 10:27:01;;;;;;;5.38;1.80;;;26.70;94.60;;;;;;5004888;28;20534;-47
2022/07/03 10:29:28;;;;;;;6.50;1.83;;;26.40;94.00;;;;;;5018774;28;20073;-46
2022/07/03 10:31:54;;;;;;;5.25;1.73;;;26.50;94.00;;;;;;5001437;28;20143;-45
2022/07/03 10:34:23;;;;;;;4.80;1.48;;;26.70;95.00;;;;;;5002252;28;20187;-47
2022/07/03 10:37:06;;;;;;;5.22;1.60;;;26.80;94.30;;;;;;5002848;28;20152;-47
2022/07/03 10:39:54;;;;;;;4.35;2.00;;;26.30;93.80;;;;;;5018111;28;20053;-48
2022/07/03 10:45:19;;;;;;;4.95;1.58;;;25.50;93.90;;;;;;5080488;28;20530;-46
2022/07/03 10:47:49;;;;;;;6.75;1.70;;;25.20;95.20;;;;;;5063594;28;20052;-46
2022/07/03 10:50:17;;;;;;;7.32;2.00;;;25.10;95.00;;;;;;5068629;28;20558;-46
2022/07/03 10:52:44;;;;;;;4.75;1.92;;;25.00;95.00;;;;;;5082475;28;20048;-46
2022/07/03 10:55:11;;;;;;;6.63;2.47;;;24.80;95.30;;;;;;5077299;28;20059;-49
2022/07/03 10:57:39;;;;;;;5.60;1.75;;;24.70;95.80;;;;;;5078045;28;20123;-49
2022/07/03 11:00:07;;;;;;;4.72;1.73;;;24.60;96.00;;;;;;5081609;28;20040;-47
2022/07/03 11:15:33;;;;;;;5.55;1.83;;;24.60;96.00;;;;;;5069118;28;20377;-42
2022/07/03 11:18:05;;;;;;;5.15;1.95;;;25.60;96.70;;;;;;5055339;28;20044;-43
2022/07/03 11:20:43;;;;;;;4.13;1.70;;;25.70;95.20;;;;;;5048216;28;20073;-43
2022/07/03 11:23:27;;;;;;;5.78;1.95;;;25.90;95.10;;;;;;5048291;28;20057;-42
2022/07/03 11:26:22;;;;;;;2.78;1.50;;;26.10;95.40;;;;;;5063028;28;20053;-43
2022/07/03 11:28:55;;;;;;;2.97;2.08;;;26.10;93.70;;;;;;4941181;28;20599;-45
2022/07/03 11:31:25;;;;;;;;;;;26.00;94.60;;;;;;4963809;28;20417;-43
2022/07/03 11:33:51;;;;;;;5.35;2.58;;;25.80;93.80;;;;;;4967446;28;20300;-43
2022/07/03 11:36:17;;;;;;;4.05;1.88;;;25.90;94.60;;;;;;4966654;28;20051;-45
2022/07/03 11:38:42;;;;;;;4.05;1.70;;;26.00;94.90;;;;;;4957658;28;20066;-44
2022/07/03 11:41:10;;;;;;;3.88;1.70;;;26.10;95.40;;;;;;4965897;28;20045;-44
2022/07/03 11:43:36;;;;;;;5.40;1.77;;;26.30;95.50;;;;;;4960247;28;20493;-42
2022/07/03 11:46:03;;;;;;;3.45;1.75;;;26.50;95.10;;;;;;4965016;28;20063;-42
2022/07/03 11:48:30;;;;;;;8.50;1.88;;;26.40;94.40;;;;;;4957655;28;20050;-46
2022/07/03 11:51:01;;;;;;;3.47;1.63;;;26.10;94.60;;;;;;4969228;28;20058;-43
2022/07/03 11:53:33;;;;;;;7.57;2.35;;;25.80;94.40;;;;;;4968712;28;20058;-44
2022/07/03 11:56:04;;;;;;;3.92;1.90;;;25.80;94.30;;;;;;4960223;28;20093;-44
2022/07/03 11:59:00;;;;;;;1.83;1.27;;;25.60;94.90;;;;;;4966185;28;20089;-43
2022/07/03 12:01:26;;;;;;;5.60;1.77;;;25.40;96.40;;;;;;4902116;29;20101;-42
2022/07/03 12:04:06;;;;;;;8.77;2.20;;;25.30;95.20;;;;;;4901356;29;20056;-41
2022/07/03 12:06:49;;;;;;;4.85;1.98;;;25.20;95.70;;;;;;4971843;28;20053;-43
2022/07/03 12:09:36;;;;;;;3.38;1.42;;;25.30;95.80;;;;;;4988746;28;20949;-45
2022/07/03 12:12:11;;;;;;;7.57;1.52;;;25.50;96.00;;;;;;4977486;28;20057;-42
2022/07/03 12:14:50;;;;;;;3.17;1.60;;;25.40;95.10;;;;;;4974878;28;20737;-44
2022/07/03 12:17:18;;;;;;;5.20;1.92;;;25.10;95.30;;;;;;4972991;28;20065;-44
2022/07/03 12:19:45;;;;;;;9.93;2.63;;;25.00;95.30;;;;;;4972412;28;20054;-45
2022/07/03 12:22:11;;;;;;;5.25;1.58;;;24.90;95.90;;;;;;4965405;28;20051;-41
2022/07/03 12:24:37;;;;;;;4.25;1.60;;;24.70;95.70;;;;;;4957891;28;20094;-42
2022/07/03 12:27:04;;;;;;;3.75;1.23;;;24.70;95.70;;;;;;4976589;28;20054;-44
2022/07/03 12:29:31;;;;;;;5.38;1.73;;;24.50;95.60;;;;;;4970331;28;20054;-42
2022/07/03 12:31:57;;;;;;;2.50;1.40;;;24.40;95.80;;;;;;4969141;28;20062;-45
2022/07/03 12:34:23;;;;;;;5.53;1.92;;;24.50;96.00;;;;;;4973861;28;20428;-41
2022/07/03 12:36:56;;;;;;;3.80;1.45;;;24.60;96.20;;;;;;4960062;28;20054;-43
2022/07/03 12:39:22;;;;;;;2.55;1.33;;;24.70;95.80;;;;;;5038006;28;20516;-43
2022/07/03 12:41:53;;;;;;;4.32;1.70;;;24.60;95.70;;;;;;5031436;28;20052;-41
2022/07/03 12:44:20;;;;;;;2.03;1.30;;;24.40;95.70;;;;;;5033370;28;20052;-44
2022/07/03 12:46:47;;;;;;;5.10;1.40;;;24.40;95.90;;;;;;5044268;28;20049;-42
2022/07/03 12:49:14;;;;;;;2.38;1.40;;;24.10;96.20;;;;;;5026952;28;20060;-45
2022/07/03 12:51:50;;;;;;;2.30;1.25;;;24.10;96.40;;;;;;5041532;28;20057;-43
2022/07/03 12:54:33;;;;;;;3.85;1.60;;;23.90;96.30;;;;;;5030779;28;20566;-46
2022/07/03 13:00:17;;;;;;;2.88;1.73;;;23.10;97.90;;;;;;5034782;28;20053;-44
2022/07/03 13:02:49;;;;;;;7.35;1.75;;;22.80;98.80;;;;;;5023456;28;20139;-45
2022/07/03 13:05:20;;;;;;;4.95;2.08;;;22.60;99.90;;;;;;5040220;28;20147;-43
2022/07/03 13:07:48;;;;;;;4.93;2.95;;;22.40;99.90;;;;;;5022056;28;20041;-42
2022/07/03 13:10:17;;;;;;;3.38;1.80;;;22.20;99.90;;;;;;5017345;28;20083;-41
2022/07/03 13:12:46;;;;;;;5.63;2.50;;;21.90;99.90;;;;;;5036103;28;20554;-40
2022/07/03 13:15:13;;;;;;;4.82;2.28;;;21.80;99.90;;;;;;5021446;28;20056;-41
2022/07/03 13:17:54;;;;;;;3.40;2.13;;;21.60;99.90;;;;;;5029368;28;20052;-44
2022/07/03 13:20:31;;;;;;;6.57;2.65;;;21.60;99.90;;;;;;5036500;28;20453;-43
2022/07/03 13:23:01;;;;;;;4.35;2.15;;;21.60;99.90;;;;;;5033042;28;20048;-42
2022/07/03 13:25:28;;;;;;;4.43;2.75;;;21.60;99.90;;;;;;5032235;28;20136;-44